sensor_id;sensor_type;location;lat;lon;timestamp;pressure;altitude;pressure_sealevel;temperature;humidity
69909;BME280;57190;47.918;8.112;2023-06-22T00:00:53;91039.69;;;16.76;82.23
69909;BME280;57190;47.918;8.112;2023-06-22T00:03:20;91054.25;;;16.75;81.95
69909;BME280;57190;47.918;8.112;2023-06-22T00:05:46;91051.69;;;16.70;82.29
69909;BME280;57190;47.918;8.112;2023-06-22T00:08:12;91044.31;;;16.61;82.52
69909;BME280;57190;47.918;8.112;2023-06-22T00:10:38;91034.94;;;16.59;82.93
69909;BME280;57190;47.918;8.112;2023-06-22T00:13:04;91039.50;;;16.58;83.02
69909;BME280;57190;47.918;8.112;2023-06-22T00:15:29;91042.50;;;16.57;83.25
69909;BME280;57190;47.918;8.112;2023-06-22T00:17:55;91043.59;;;16.56;83.48
69909;BME280;57190;47.918;8.112;2023-06-22T00:20:22;91047.31;;;16.60;83.15
69909;BME280;57190;47.918;8.112;2023-06-22T00:22:48;91044.63;;;16.60;82.93
69909;BME280;57190;47.918;8.112;2023-06-22T00:25:13;91045.72;;;16.59;82.92
69909;BME280;57190;47.918;8.112;2023-06-22T00:27:39;91046.81;;;16.58;82.61
69909;BME280;57190;47.918;8.112;2023-06-22T00:30:05;91051.59;;;16.61;82.21
69909;BME280;57190;47.918;8.112;2023-06-22T00:32:30;91059.38;;;16.62;81.81
69909;BME280;57190;47.918;8.112;2023-06-22T00:34:56;91055.06;;;16.61;81.58
69909;BME280;57190;47.918;8.112;2023-06-22T00:37:21;91050.28;;;16.58;81.38
69909;BME280;57190;47.918;8.112;2023-06-22T00:39:51;91058.78;;;16.52;81.46
69909;BME280;57190;47.918;8.112;2023-06-22T00:42:16;91057.47;;;16.49;81.75
69909;BME280;57190;47.918;8.112;2023-06-22T00:44:42;91055.88;;;16.48;81.67
69909;BME280;57190;47.918;8.112;2023-06-22T00:47:07;91050.97;;;16.50;81.70
69909;BME280;57190;47.918;8.112;2023-06-22T00:49:33;91053.06;;;16.53;81.29
69909;BME280;57190;47.918;8.112;2023-06-22T00:51:58;91050.28;;;16.44;81.51
69909;BME280;57190;47.918;8.112;2023-06-22T00:54:24;91048.78;;;16.38;81.34
69909;BME280;57190;47.918;8.112;2023-06-22T00:56:53;91048.28;;;16.36;81.39
69909;BME280;57190;47.918;8.112;2023-06-22T00:59:20;91048.28;;;16.36;81.50
69909;BME280;57190;47.918;8.112;2023-06-22T01:01:46;91040.50;;;16.34;81.57
69909;BME280;57190;47.918;8.112;2023-06-22T01:04:12;91041.00;;;16.37;81.46
69909;BME280;57190;47.918;8.112;2023-06-22T01:06:54;91047.88;;;16.43;80.52
69909;BME280;57190;47.918;8.112;2023-06-22T01:09:32;91042.03;;;16.41;80.78
69909;BME280;57190;47.918;8.112;2023-06-22T01:12:03;91039.78;;;16.29;80.94
69909;BME280;57190;47.918;8.112;2023-06-22T01:14:40;91034.47;;;16.10;81.26
69909;BME280;57190;47.918;8.112;2023-06-22T01:17:08;91033.75;;;16.04;81.91
69909;BME280;57190;47.918;8.112;2023-06-22T01:19:39;91034.06;;;16.02;82.02
69909;BME280;57190;47.918;8.112;2023-06-22T01:22:10;91036.44;;;16.04;81.75
69909;BME280;57190;47.918;8.112;2023-06-22T01:30:22;91037.84;;;16.01;81.53
69909;BME280;57190;47.918;8.112;2023-06-22T01:32:51;91039.44;;;16.02;81.66
69909;BME280;57190;47.918;8.112;2023-06-22T01:35:18;91038.47;;;15.98;82.20
69909;BME280;57190;47.918;8.112;2023-06-22T01:37:45;91041.16;;;15.98;82.42
69909;BME280;57190;47.918;8.112;2023-06-22T01:40:13;91041.94;;;15.99;82.12
69909;BME280;57190;47.918;8.112;2023-06-22T01:42:39;91043.13;;;15.93;82.23
69909;BME280;57190;47.918;8.112;2023-06-22T01:45:05;91042.97;;;15.84;82.29
69909;BME280;57190;47.918;8.112;2023-06-22T01:47:32;91034.91;;;15.84;82.18
69909;BME280;57190;47.918;8.112;2023-06-22T01:49:59;91032.44;;;15.87;81.87
69909;BME280;57190;47.918;8.112;2023-06-22T01:52:24;91038.94;;;15.86;82.03
69909;BME280;57190;47.918;8.112;2023-06-22T01:54:50;91025.75;;;15.85;81.70
69909;BME280;57190;47.918;8.112;2023-06-22T01:57:15;91022.28;;;15.84;81.85
69909;BME280;57190;47.918;8.112;2023-06-22T01:59:48;91024.88;;;15.90;81.65
69909;BME280;57190;47.918;8.112;2023-06-22T02:02:19;91026.09;;;15.97;81.26
69909;BME280;57190;47.918;8.112;2023-06-22T02:04:56;91030.75;;;15.92;81.50
69909;BME280;57190;47.918;8.112;2023-06-22T02:07:23;91029.25;;;15.85;82.18
69909;BME280;57190;47.918;8.112;2023-06-22T02:09:52;91025.69;;;15.71;82.47
69909;BME280;57190;47.918;8.112;2023-06-22T02:12:22;91023.28;;;15.69;82.69
69909;BME280;57190;47.918;8.112;2023-06-22T02:14:50;91027.38;;;15.67;82.55
69909;BME280;57190;47.918;8.112;2023-06-22T02:17:17;91027.69;;;15.65;82.72
69909;BME280;57190;47.918;8.112;2023-06-22T02:19:43;91027.94;;;15.64;83.02
69909;BME280;57190;47.918;8.112;2023-06-22T02:22:09;91021.19;;;15.66;82.87
69909;BME280;57190;47.918;8.112;2023-06-22T02:24:35;91022.78;;;15.67;82.83
69909;BME280;57190;47.918;8.112;2023-06-22T02:27:01;91009.84;;;15.69;83.12
69909;BME280;57190;47.918;8.112;2023-06-22T02:29:28;91014.66;;;15.72;82.88
69909;BME280;57190;47.918;8.112;2023-06-22T02:31:54;91011.75;;;15.69;83.06
69909;BME280;57190;47.918;8.112;2023-06-22T02:34:20;91012.22;;;15.57;83.31
69909;BME280;57190;47.918;8.112;2023-06-22T02:36:46;90999.94;;;15.51;83.30
69909;BME280;57190;47.918;8.112;2023-06-22T02:39:23;91001.41;;;15.43;83.73
69909;BME280;57190;47.918;8.112;2023-06-22T02:41:50;91003.13;;;15.53;83.85
69909;BME280;57190;47.918;8.112;2023-06-22T02:44:17;91005.56;;;15.68;83.73
69909;BME280;57190;47.918;8.112;2023-06-22T02:46:43;90996.16;;;15.85;83.23
69909;BME280;57190;47.918;8.112;2023-06-22T02:49:09;90991.13;;;15.97;82.44
69909;BME280;57190;47.918;8.112;2023-06-22T02:51:34;90999.28;;;16.06;82.40
69909;BME280;57190;47.918;8.112;2023-06-22T02:54:01;91000.00;;;16.12;81.87
69909;BME280;57190;47.918;8.112;2023-06-22T02:56:28;90993.13;;;16.06;81.73
69909;BME280;57190;47.918;8.112;2023-06-22T02:58:55;90993.69;;;15.88;82.57
69909;BME280;57190;47.918;8.112;2023-06-22T03:01:25;90992.78;;;15.93;82.49
69909;BME280;57190;47.918;8.112;2023-06-22T03:03:53;90998.09;;;15.98;81.79
69909;BME280;57190;47.918;8.112;2023-06-22T03:06:18;90999.09;;;16.02;81.30
69909;BME280;57190;47.918;8.112;2023-06-22T03:08:48;90994.22;;;16.05;81.15
69909;BME280;57190;47.918;8.112;2023-06-22T03:11:14;90998.50;;;16.06;81.40
69909;BME280;57190;47.918;8.112;2023-06-22T03:13:40;90993.19;;;16.00;81.00
69909;BME280;57190;47.918;8.112;2023-06-22T03:16:05;90995.00;;;16.05;80.49
69909;BME280;57190;47.918;8.112;2023-06-22T03:18:31;90978.78;;;16.10;80.00
69909;BME280;57190;47.918;8.112;2023-06-22T03:20:56;90993.03;;;16.11;80.11
69909;BME280;57190;47.918;8.112;2023-06-22T03:23:22;90993.44;;;16.18;79.99
69909;BME280;57190;47.918;8.112;2023-06-22T03:25:47;90988.34;;;16.16;79.54
69909;BME280;57190;47.918;8.112;2023-06-22T03:28:13;90987.06;;;16.14;79.71
69909;BME280;57190;47.918;8.112;2023-06-22T03:30:38;90983.97;;;16.07;80.00
69909;BME280;57190;47.918;8.112;2023-06-22T03:33:04;90986.72;;;16.01;80.14
69909;BME280;57190;47.918;8.112;2023-06-22T03:35:29;90977.69;;;15.97;79.99
69909;BME280;57190;47.918;8.112;2023-06-22T03:37:55;90974.78;;;15.94;80.15
69909;BME280;57190;47.918;8.112;2023-06-22T03:40:20;90976.47;;;15.90;80.91
69909;BME280;57190;47.918;8.112;2023-06-22T03:42:46;90986.84;;;15.96;80.56
69909;BME280;57190;47.918;8.112;2023-06-22T03:45:12;90983.16;;;16.06;80.74
69909;BME280;57190;47.918;8.112;2023-06-22T03:47:37;90973.69;;;16.09;80.39
69909;BME280;57190;47.918;8.112;2023-06-22T03:50:03;90979.97;;;16.18;80.08
69909;BME280;57190;47.918;8.112;2023-06-22T03:52:29;90969.22;;;16.18;80.69
69909;BME280;57190;47.918;8.112;2023-06-22T03:54:55;90979.47;;;16.16;80.37
69909;BME280;57190;47.918;8.112;2023-06-22T03:57:21;90976.50;;;16.17;80.59
69909;BME280;57190;47.918;8.112;2023-06-22T03:59:47;90981.47;;;16.10;80.77
69909;BME280;57190;47.918;8.112;2023-06-22T04:02:12;90985.16;;;16.14;80.59
69909;BME280;57190;47.918;8.112;2023-06-22T04:04:38;90977.59;;;16.16;80.47
69909;BME280;57190;47.918;8.112;2023-06-22T04:07:05;90978.88;;;16.19;80.79
69909;BME280;57190;47.918;8.112;2023-06-22T04:09:30;90973.81;;;16.17;80.53
69909;BME280;57190;47.918;8.112;2023-06-22T04:11:56;90973.41;;;16.10;80.83
69909;BME280;57190;47.918;8.112;2023-06-22T04:14:21;90973.28;;;16.01;81.01
69909;BME280;57190;47.918;8.112;2023-06-22T04:16:47;90982.38;;;16.06;81.75
69909;BME280;57190;47.918;8.112;2023-06-22T04:19:12;90972.91;;;16.22;81.05
69909;BME280;57190;47.918;8.112;2023-06-22T04:21:42;90971.81;;;16.37;81.16
69909;BME280;57190;47.918;8.112;2023-06-22T04:24:09;90977.28;;;16.46;80.81
69909;BME280;57190;47.918;8.112;2023-06-22T04:26:35;90970.91;;;16.56;80.72
69909;BME280;57190;47.918;8.112;2023-06-22T04:29:05;90977.19;;;16.65;81.05
69909;BME280;57190;47.918;8.112;2023-06-22T04:31:34;90981.84;;;16.73;80.77
69909;BME280;57190;47.918;8.112;2023-06-22T04:34:06;90974.66;;;16.82;80.49
69909;BME280;57190;47.918;8.112;2023-06-22T04:36:40;90973.75;;;16.87;80.61
69909;BME280;57190;47.918;8.112;2023-06-22T04:39:12;90973.16;;;16.90;80.67
69909;BME280;57190;47.918;8.112;2023-06-22T04:41:38;90973.06;;;16.95;80.68
69909;BME280;57190;47.918;8.112;2023-06-22T04:44:16;90968.53;;;17.19;80.28
69909;BME280;57190;47.918;8.112;2023-06-22T04:46:55;90970.72;;;17.39;79.76
69909;BME280;57190;47.918;8.112;2023-06-22T04:49:26;90983.66;;;17.51;79.92
69909;BME280;57190;47.918;8.112;2023-06-22T04:51:58;90979.25;;;17.55;79.55
69909;BME280;57190;47.918;8.112;2023-06-22T04:54:24;90984.59;;;17.69;78.75
69909;BME280;57190;47.918;8.112;2023-06-22T04:56:50;90992.69;;;17.69;78.75
69909;BME280;57190;47.918;8.112;2023-06-22T04:59:26;90974.16;;;17.76;78.63
69909;BME280;57190;47.918;8.112;2023-06-22T05:01:54;90974.84;;;17.82;78.94
69909;BME280;57190;47.918;8.112;2023-06-22T05:04:20;90975.53;;;17.88;78.91
69909;BME280;57190;47.918;8.112;2023-06-22T05:06:45;90971.56;;;17.94;78.62
69909;BME280;57190;47.918;8.112;2023-06-22T05:09:11;90958.59;;;17.96;78.38
69909;BME280;57190;47.918;8.112;2023-06-22T05:11:37;90963.78;;;17.92;78.93
69909;BME280;57190;47.918;8.112;2023-06-22T05:14:03;90967.59;;;17.91;78.91
69909;BME280;57190;47.918;8.112;2023-06-22T05:16:28;90966.19;;;17.94;78.97
69909;BME280;57190;47.918;8.112;2023-06-22T05:18:54;90951.09;;;17.93;78.37
69909;BME280;57190;47.918;8.112;2023-06-22T05:21:25;90959.44;;;17.83;78.36
69909;BME280;57190;47.918;8.112;2023-06-22T05:23:54;90965.00;;;17.86;78.72
69909;BME280;57190;47.918;8.112;2023-06-22T05:26:21;90956.38;;;17.98;78.52
69909;BME280;57190;47.918;8.112;2023-06-22T05:28:47;90964.66;;;18.02;78.69
69909;BME280;57190;47.918;8.112;2023-06-22T05:31:14;90961.50;;;18.09;78.66
69909;BME280;57190;47.918;8.112;2023-06-22T05:33:41;90957.75;;;18.18;77.80
69909;BME280;57190;47.918;8.112;2023-06-22T05:39:29;90950.47;;;18.28;77.31
69909;BME280;57190;47.918;8.112;2023-06-22T05:41:54;90945.91;;;18.37;76.74
69909;BME280;57190;47.918;8.112;2023-06-22T05:44:20;90949.44;;;18.46;76.34
69909;BME280;57190;47.918;8.112;2023-06-22T05:46:45;90955.00;;;18.50;75.97
69909;BME280;57190;47.918;8.112;2023-06-22T05:49:15;90965.84;;;18.59;75.71
69909;BME280;57190;47.918;8.112;2023-06-22T05:51:41;90966.81;;;18.63;76.17
69909;BME280;57190;47.918;8.112;2023-06-22T05:54:07;90951.41;;;18.63;75.89
69909;BME280;57190;47.918;8.112;2023-06-22T05:56:35;90958.38;;;18.64;75.70
69909;BME280;57190;47.918;8.112;2023-06-22T05:59:01;90969.53;;;18.72;75.87
69909;BME280;57190;47.918;8.112;2023-06-22T06:01:27;90973.84;;;18.81;76.31
69909;BME280;57190;47.918;8.112;2023-06-22T06:03:52;90967.50;;;18.86;76.10
69909;BME280;57190;47.918;8.112;2023-06-22T06:06:18;90960.66;;;18.89;75.92
69909;BME280;57190;47.918;8.112;2023-06-22T06:08:46;90961.03;;;18.96;75.89
69909;BME280;57190;47.918;8.112;2023-06-22T06:11:12;90971.69;;;19.01;75.52
69909;BME280;57190;47.918;8.112;2023-06-22T06:13:37;90966.47;;;19.05;74.71
69909;BME280;57190;47.918;8.112;2023-06-22T06:16:03;90959.63;;;19.07;75.13
69909;BME280;57190;47.918;8.112;2023-06-22T06:18:29;90950.22;;;19.13;75.16
69909;BME280;57190;47.918;8.112;2023-06-22T06:20:54;90955.47;;;19.19;75.01
69909;BME280;57190;47.918;8.112;2023-06-22T06:23:19;90957.88;;;19.29;73.99
69909;BME280;57190;47.918;8.112;2023-06-22T06:25:45;90949.28;;;19.36;73.40
69909;BME280;57190;47.918;8.112;2023-06-22T06:28:10;90948.50;;;19.44;72.89
69909;BME280;57190;47.918;8.112;2023-06-22T06:30:36;90945.31;;;19.51;72.35
69909;BME280;57190;47.918;8.112;2023-06-22T06:33:02;90943.53;;;19.55;72.62
69909;BME280;57190;47.918;8.112;2023-06-22T06:35:30;90950.22;;;19.66;72.84
69909;BME280;57190;47.918;8.112;2023-06-22T06:37:55;90955.94;;;19.73;72.71
69909;BME280;57190;47.918;8.112;2023-06-22T06:40:21;90959.28;;;19.70;72.49
69909;BME280;57190;47.918;8.112;2023-06-22T06:42:48;90954.22;;;19.60;72.62
69909;BME280;57190;47.918;8.112;2023-06-22T06:45:19;90955.16;;;19.64;72.75
69909;BME280;57190;47.918;8.112;2023-06-22T06:47:46;90954.19;;;19.86;72.66
69909;BME280;57190;47.918;8.112;2023-06-22T06:50:12;90967.03;;;20.16;72.53
69909;BME280;57190;47.918;8.112;2023-06-22T06:52:38;90988.50;;;20.30;71.41
69909;BME280;57190;47.918;8.112;2023-06-22T06:55:04;90983.03;;;20.38;72.30
69909;BME280;57190;47.918;8.112;2023-06-22T06:57:32;90982.56;;;20.36;72.06
69909;BME280;57190;47.918;8.112;2023-06-22T06:59:59;90991.22;;;20.30;72.34
69909;BME280;57190;47.918;8.112;2023-06-22T07:02:25;90990.41;;;20.29;71.96
69909;BME280;57190;47.918;8.112;2023-06-22T07:04:53;90993.59;;;20.31;72.48
69909;BME280;57190;47.918;8.112;2023-06-22T07:07:20;91009.22;;;20.34;73.16
69909;BME280;57190;47.918;8.112;2023-06-22T07:09:46;91022.41;;;20.36;73.93
69909;BME280;57190;47.918;8.112;2023-06-22T07:12:11;91045.84;;;20.32;74.12
69909;BME280;57190;47.918;8.112;2023-06-22T07:14:41;91056.84;;;20.26;75.02
69909;BME280;57190;47.918;8.112;2023-06-22T07:17:06;91052.06;;;20.23;75.38
69909;BME280;57190;47.918;8.112;2023-06-22T07:19:32;91039.00;;;20.25;75.49
69909;BME280;57190;47.918;8.112;2023-06-22T07:21:58;91048.09;;;20.30;74.58
69909;BME280;57190;47.918;8.112;2023-06-22T07:24:24;91052.69;;;20.38;73.87
69909;BME280;57190;47.918;8.112;2023-06-22T07:26:50;91056.31;;;20.51;73.58
69909;BME280;57190;47.918;8.112;2023-06-22T07:29:19;91053.72;;;20.63;74.12
69909;BME280;57190;47.918;8.112;2023-06-22T07:31:46;91055.78;;;20.84;72.68
69909;BME280;57190;47.918;8.112;2023-06-22T07:34:12;91052.69;;;20.94;72.26
69909;BME280;57190;47.918;8.112;2023-06-22T07:36:38;91052.66;;;21.03;71.94
69909;BME280;57190;47.918;8.112;2023-06-22T07:39:03;91053.06;;;21.14;70.81
69909;BME280;57190;47.918;8.112;2023-06-22T07:41:30;91054.00;;;21.48;70.18
69909;BME280;57190;47.918;8.112;2023-06-22T07:43:55;91056.34;;;21.58;69.22
69909;BME280;57190;47.918;8.112;2023-06-22T07:46:21;91050.34;;;21.74;67.51
69909;BME280;57190;47.918;8.112;2023-06-22T07:48:47;91059.13;;;21.92;65.85
69909;BME280;57190;47.918;8.112;2023-06-22T07:51:12;91061.66;;;22.18;65.77
69909;BME280;57190;47.918;8.112;2023-06-22T07:53:40;91055.81;;;22.28;65.90
69909;BME280;57190;47.918;8.112;2023-06-22T07:56:06;91052.63;;;22.26;64.61
69909;BME280;57190;47.918;8.112;2023-06-22T07:58:32;91053.34;;;22.36;63.94
69909;BME280;57190;47.918;8.112;2023-06-22T08:00:57;91054.91;;;22.58;63.56
69909;BME280;57190;47.918;8.112;2023-06-22T08:03:23;91055.63;;;22.80;63.32
69909;BME280;57190;47.918;8.112;2023-06-22T08:05:48;91048.03;;;22.98;63.55
69909;BME280;57190;47.918;8.112;2023-06-22T08:08:15;91040.91;;;23.05;63.21
69909;BME280;57190;47.918;8.112;2023-06-22T08:10:40;91024.38;;;23.11;62.59
69909;BME280;57190;47.918;8.112;2023-06-22T08:13:07;91015.78;;;23.21;60.68
69909;BME280;57190;47.918;8.112;2023-06-22T08:15:33;91025.19;;;23.36;59.69
69909;BME280;57190;47.918;8.112;2023-06-22T08:17:59;91016.44;;;23.55;58.01
69909;BME280;57190;47.918;8.112;2023-06-22T08:20:26;91017.28;;;23.71;57.55
69909;BME280;57190;47.918;8.112;2023-06-22T08:22:53;91011.84;;;23.84;56.83
69909;BME280;57190;47.918;8.112;2023-06-22T08:25:20;91015.00;;;23.98;56.49
69909;BME280;57190;47.918;8.112;2023-06-22T08:27:46;91011.53;;;24.14;55.93
69909;BME280;57190;47.918;8.112;2023-06-22T08:30:13;91005.13;;;24.22;56.64
69909;BME280;57190;47.918;8.112;2023-06-22T08:32:38;90994.38;;;24.42;56.57
69909;BME280;57190;47.918;8.112;2023-06-22T08:35:04;90993.59;;;24.57;56.40
69909;BME280;57190;47.918;8.112;2023-06-22T08:37:32;90981.84;;;24.69;57.50
69909;BME280;57190;47.918;8.112;2023-06-22T08:40:04;90979.66;;;24.75;52.31
69909;BME280;57190;47.918;8.112;2023-06-22T08:42:37;90982.19;;;24.84;53.52
69909;BME280;57190;47.918;8.112;2023-06-22T08:45:04;90966.81;;;24.91;53.84
69909;BME280;57190;47.918;8.112;2023-06-22T08:47:29;90969.44;;;24.88;54.14
69909;BME280;57190;47.918;8.112;2023-06-22T08:49:55;90969.78;;;24.86;54.84
69909;BME280;57190;47.918;8.112;2023-06-22T08:52:21;90970.69;;;24.90;54.27
69909;BME280;57190;47.918;8.112;2023-06-22T08:54:48;90974.63;;;25.09;53.18
69909;BME280;57190;47.918;8.112;2023-06-22T08:57:14;90977.13;;;25.34;50.23
69909;BME280;57190;47.918;8.112;2023-06-22T08:59:39;90982.81;;;25.61;46.13
69909;BME280;57190;47.918;8.112;2023-06-22T09:02:06;90979.66;;;25.78;44.13
69909;BME280;57190;47.918;8.112;2023-06-22T09:04:31;90981.06;;;25.88;44.92
69909;BME280;57190;47.918;8.112;2023-06-22T09:07:00;90973.06;;;26.15;43.54
69909;BME280;57190;47.918;8.112;2023-06-22T09:09:26;90969.91;;;26.36;43.37
69909;BME280;57190;47.918;8.112;2023-06-22T09:11:52;90967.88;;;26.52;41.91
69909;BME280;57190;47.918;8.112;2023-06-22T09:14:17;90975.06;;;26.61;40.68
69909;BME280;57190;47.918;8.112;2023-06-22T09:16:44;90973.94;;;26.65;40.44
69909;BME280;57190;47.918;8.112;2023-06-22T09:19:10;90962.78;;;26.74;39.52
69909;BME280;57190;47.918;8.112;2023-06-22T09:21:36;90961.41;;;26.84;40.42
69909;BME280;57190;47.918;8.112;2023-06-22T09:24:03;90959.97;;;26.90;40.05
69909;BME280;57190;47.918;8.112;2023-06-22T09:26:30;90954.94;;;26.96;39.58
69909;BME280;57190;47.918;8.112;2023-06-22T09:28:56;90949.31;;;27.08;38.53
69909;BME280;57190;47.918;8.112;2023-06-22T09:31:26;90952.19;;;27.19;39.79
69909;BME280;57190;47.918;8.112;2023-06-22T09:33:54;90949.72;;;27.37;38.88
69909;BME280;57190;47.918;8.112;2023-06-22T09:36:22;90941.72;;;27.48;38.05
69909;BME280;57190;47.918;8.112;2023-06-22T09:38:50;90940.66;;;27.56;38.55
69909;BME280;57190;47.918;8.112;2023-06-22T09:41:24;90936.59;;;27.46;35.95
69909;BME280;57190;47.918;8.112;2023-06-22T09:43:51;90937.00;;;27.49;36.65
69909;BME280;57190;47.918;8.112;2023-06-22T09:46:18;90943.38;;;27.56;35.70
69909;BME280;57190;47.918;8.112;2023-06-22T09:48:55;90930.59;;;27.68;36.86
69909;BME280;57190;47.918;8.112;2023-06-22T09:51:22;90932.66;;;27.74;36.20
69909;BME280;57190;47.918;8.112;2023-06-22T09:53:52;90936.56;;;27.73;36.89
69909;BME280;57190;47.918;8.112;2023-06-22T09:56:24;90930.50;;;27.60;35.26
69909;BME280;57190;47.918;8.112;2023-06-22T09:58:54;90933.53;;;27.52;35.35
69909;BME280;57190;47.918;8.112;2023-06-22T10:01:23;90934.66;;;27.47;35.28
69909;BME280;57190;47.918;8.112;2023-06-22T10:03:52;90936.59;;;27.46;36.11
69909;BME280;57190;47.918;8.112;2023-06-22T10:06:22;90933.50;;;27.48;35.63
69909;BME280;57190;47.918;8.112;2023-06-22T10:08:47;90926.94;;;27.56;33.21
69909;BME280;57190;47.918;8.112;2023-06-22T10:11:16;90930.50;;;27.60;33.14
69909;BME280;57190;47.918;8.112;2023-06-22T10:13:44;90951.75;;;27.67;34.15
69909;BME280;57190;47.918;8.112;2023-06-22T10:16:09;90941.38;;;27.53;31.53
69909;BME280;57190;47.918;8.112;2023-06-22T10:18:35;90932.94;;;27.39;31.71
69909;BME280;57190;47.918;8.112;2023-06-22T10:21:02;90933.63;;;27.32;32.55
69909;BME280;57190;47.918;8.112;2023-06-22T10:23:27;90941.78;;;27.28;33.68
69909;BME280;57190;47.918;8.112;2023-06-22T10:25:57;90943.38;;;27.29;34.46
69909;BME280;57190;47.918;8.112;2023-06-22T10:28:23;90944.94;;;27.30;34.41
69909;BME280;57190;47.918;8.112;2023-06-22T10:30:48;90953.94;;;27.31;35.25
69909;BME280;57190;47.918;8.112;2023-06-22T10:33:14;90958.50;;;27.46;35.31
69909;BME280;57190;47.918;8.112;2023-06-22T10:35:40;90941.03;;;27.58;33.72
69909;BME280;57190;47.918;8.112;2023-06-22T10:38:06;90955.47;;;27.82;34.52
69909;BME280;57190;47.918;8.112;2023-06-22T10:40:32;90939.13;;;27.89;35.42
69909;BME280;57190;47.918;8.112;2023-06-22T10:42:57;90944.00;;;28.03;34.82
69909;BME280;57190;47.918;8.112;2023-06-22T10:45:23;90950.63;;;28.02;35.33
69909;BME280;57190;47.918;8.112;2023-06-22T10:47:49;90933.72;;;27.97;36.13
69909;BME280;57190;47.918;8.112;2023-06-22T10:50:15;90941.81;;;27.86;35.85
69909;BME280;57190;47.918;8.112;2023-06-22T10:52:41;90946.78;;;27.76;34.82
69909;BME280;57190;47.918;8.112;2023-06-22T10:55:08;90960.56;;;27.84;34.22
69909;BME280;57190;47.918;8.112;2023-06-22T10:57:34;90976.34;;;27.90;34.25
69909;BME280;57190;47.918;8.112;2023-06-22T10:59:59;90976.09;;;28.03;33.80
69909;BME280;57190;47.918;8.112;2023-06-22T11:02:25;90996.94;;;28.07;35.10
69909;BME280;57190;47.918;8.112;2023-06-22T11:04:53;90999.81;;;27.91;35.76
69909;BME280;57190;47.918;8.112;2023-06-22T11:07:19;91011.34;;;27.74;35.09
69909;BME280;57190;47.918;8.112;2023-06-22T11:09:44;91018.50;;;27.55;33.74
69909;BME280;57190;47.918;8.112;2023-06-22T11:12:10;91007.38;;;27.44;33.75
69909;BME280;57190;47.918;8.112;2023-06-22T11:14:35;91009.97;;;27.37;34.73
69909;BME280;57190;47.918;8.112;2023-06-22T11:17:01;90994.19;;;27.27;33.44
69909;BME280;57190;47.918;8.112;2023-06-22T11:19:26;91009.63;;;27.15;34.78
69909;BME280;57190;47.918;8.112;2023-06-22T11:21:52;91024.09;;;27.16;34.42
69909;BME280;57190;47.918;8.112;2023-06-22T11:24:17;91015.16;;;27.19;34.42
69909;BME280;57190;47.918;8.112;2023-06-22T11:26:43;91025.41;;;27.22;34.98
69909;BME280;57190;47.918;8.112;2023-06-22T11:29:09;91020.69;;;27.23;34.17
69909;BME280;57190;47.918;8.112;2023-06-22T11:31:35;91025.78;;;27.24;34.26
69909;BME280;57190;47.918;8.112;2023-06-22T11:34:01;91019.59;;;27.27;35.63
69909;BME280;57190;47.918;8.112;2023-06-22T11:36:26;91030.13;;;27.25;36.37
69909;BME280;57190;47.918;8.112;2023-06-22T11:38:52;91034.44;;;27.26;36.96
69909;BME280;57190;47.918;8.112;2023-06-22T11:41:18;91041.06;;;27.25;36.21
69909;BME280;57190;47.918;8.112;2023-06-22T11:43:44;91050.16;;;27.06;36.19
69909;BME280;57190;47.918;8.112;2023-06-22T11:46:10;91049.91;;;26.92;37.73
69909;BME280;57190;47.918;8.112;2023-06-22T11:48:36;91032.44;;;26.77;36.23
69909;BME280;57190;47.918;8.112;2023-06-22T11:51:02;91035.59;;;26.59;36.08
69909;BME280;57190;47.918;8.112;2023-06-22T11:53:28;91025.91;;;26.42;35.51
69909;BME280;57190;47.918;8.112;2023-06-22T11:55:54;91031.16;;;26.31;36.81
69909;BME280;57190;47.918;8.112;2023-06-22T11:58:21;91024.88;;;26.31;37.41
69909;BME280;57190;47.918;8.112;2023-06-22T12:00:47;91005.44;;;26.36;37.70
69909;BME280;57190;47.918;8.112;2023-06-22T12:03:12;90997.25;;;26.36;38.36
69909;BME280;57190;47.918;8.112;2023-06-22T12:05:40;91001.09;;;26.31;38.25
69909;BME280;57190;47.918;8.112;2023-06-22T12:08:06;90988.44;;;26.23;37.46
69909;BME280;57190;47.918;8.112;2023-06-22T12:10:31;90989.84;;;26.17;37.95
69909;BME280;57190;47.918;8.112;2023-06-22T12:12:57;91005.41;;;26.13;38.33
69909;BME280;57190;47.918;8.112;2023-06-22T12:15:25;91014.69;;;26.08;39.02
69909;BME280;57190;47.918;8.112;2023-06-22T12:17:50;91014.69;;;26.08;39.64
69909;BME280;57190;47.918;8.112;2023-06-22T12:20:16;91018.38;;;26.00;40.23
69909;BME280;57190;47.918;8.112;2023-06-22T12:22:41;91012.34;;;25.90;39.61
69909;BME280;57190;47.918;8.112;2023-06-22T12:25:10;91012.72;;;25.89;39.36
69909;BME280;57190;47.918;8.112;2023-06-22T12:27:37;91011.47;;;25.86;38.58
69909;BME280;57190;47.918;8.112;2023-06-22T12:30:03;91019.56;;;25.83;38.95
69909;BME280;57190;47.918;8.112;2023-06-22T12:32:29;91021.00;;;25.77;39.05
69909;BME280;57190;47.918;8.112;2023-06-22T12:34:55;91016.63;;;25.72;39.58
69909;BME280;57190;47.918;8.112;2023-06-22T12:37:21;91030.66;;;25.70;38.01
69909;BME280;57190;47.918;8.112;2023-06-22T12:39:47;91025.88;;;25.67;38.55
69909;BME280;57190;47.918;8.112;2023-06-22T12:42:12;91032.38;;;25.79;38.57
69909;BME280;57190;47.918;8.112;2023-06-22T12:44:39;91042.41;;;25.90;39.61
69909;BME280;57190;47.918;8.112;2023-06-22T12:47:07;91034.09;;;26.23;39.08
69909;BME280;57190;47.918;8.112;2023-06-22T12:49:34;91036.97;;;26.30;39.61
69909;BME280;57190;47.918;8.112;2023-06-22T12:52:00;91034.63;;;26.48;39.85
69909;BME280;57190;47.918;8.112;2023-06-22T12:54:25;91024.22;;;26.57;39.58
69909;BME280;57190;47.918;8.112;2023-06-22T12:56:51;91015.81;;;26.46;39.97
69909;BME280;57190;47.918;8.112;2023-06-22T12:59:16;90996.22;;;26.64;40.31
69909;BME280;57190;47.918;8.112;2023-06-22T13:01:43;90981.31;;;26.81;39.57
69909;BME280;57190;47.918;8.112;2023-06-22T13:04:11;90993.75;;;26.78;40.48
69909;BME280;57190;47.918;8.112;2023-06-22T13:06:38;90988.66;;;26.77;40.90